createdAt,value
2023-08-14T00:00:08.845Z,1.70
2023-08-14T00:02:35.707Z,1.80
2023-08-14T00:05:02.474Z,1.92
2023-08-14T00:07:29.395Z,1.50
2023-08-14T00:09:55.942Z,1.60
2023-08-14T00:12:22.911Z,1.80
2023-08-14T00:14:49.562Z,1.83
2023-08-14T00:17:16.069Z,1.85
2023-08-14T00:19:42.705Z,2.00
2023-08-14T00:22:09.683Z,2.00
2023-08-14T00:24:36.316Z,1.90
2023-08-14T00:27:02.885Z,1.67
2023-08-14T00:29:29.423Z,1.70
2023-08-14T00:31:56.010Z,1.77
2023-08-14T00:34:22.634Z,1.80
2023-08-14T00:36:49.251Z,1.50
2023-08-14T00:39:15.975Z,1.63
2023-08-14T00:41:42.561Z,1.90
2023-08-14T00:44:09.677Z,1.55
2023-08-14T00:46:36.366Z,1.92
2023-08-14T00:49:03.220Z,1.90
2023-08-14T00:51:30.050Z,1.90
2023-08-14T00:53:56.733Z,1.88
2023-08-14T00:56:24.516Z,1.70
2023-08-14T00:58:51.442Z,1.80
2023-08-14T01:01:19.144Z,1.80
2023-08-14T01:03:45.920Z,2.05
2023-08-14T01:06:12.652Z,2.35
2023-08-14T01:08:40.013Z,2.00
2023-08-14T01:11:30.900Z,1.75
2023-08-14T01:14:12.188Z,2.13
2023-08-14T01:16:42.291Z,1.85
2023-08-14T01:19:19.916Z,1.80
2023-08-14T01:21:56.898Z,1.77
2023-08-14T01:25:00.727Z,1.80
2023-08-14T01:27:28.007Z,2.55
2023-08-14T01:30:00.664Z,2.35
2023-08-14T01:32:27.875Z,2.28
2023-08-14T01:34:56.162Z,1.73
2023-08-14T01:37:39.449Z,1.98
2023-08-14T01:40:30.068Z,1.98
2023-08-14T01:43:05.859Z,2.05
2023-08-14T01:45:33.450Z,1.98
2023-08-14T01:48:01.077Z,1.90
2023-08-14T01:50:30.335Z,2.03
2023-08-14T01:52:58.206Z,1.83
2023-08-14T01:55:25.787Z,2.08
2023-08-14T01:57:53.595Z,2.00
2023-08-14T02:00:21.180Z,1.83
2023-08-14T02:02:48.420Z,1.83
2023-08-14T02:05:15.193Z,1.90
2023-08-14T02:07:43.204Z,2.00
2023-08-14T02:10:10.123Z,1.90
2023-08-14T02:12:37.009Z,2.10
2023-08-14T02:15:04.094Z,1.67
2023-08-14T02:17:31.063Z,2.38
2023-08-14T02:19:57.843Z,1.92
2023-08-14T02:22:24.425Z,1.90
2023-08-14T02:24:51.021Z,2.10
2023-08-14T02:27:17.709Z,2.38
2023-08-14T02:29:44.370Z,1.90
2023-08-14T02:32:11.090Z,2.45
2023-08-14T02:34:49.232Z,2.20
2023-08-14T02:37:17.287Z,2.40
2023-08-14T02:39:44.739Z,1.88
2023-08-14T02:42:12.142Z,1.92
2023-08-14T02:44:38.913Z,1.92
2023-08-14T02:47:05.654Z,2.00
2023-08-14T02:49:32.261Z,1.90
2023-08-14T02:51:59.271Z,2.00
2023-08-14T02:54:25.978Z,1.98
2023-08-14T02:56:54.839Z,2.08
2023-08-14T02:59:22.255Z,2.20
2023-08-14T03:01:48.852Z,2.15
2023-08-14T03:04:16.944Z,2.38
2023-08-14T03:06:46.327Z,2.08
2023-08-14T03:11:39.957Z,2.13
2023-08-14T03:14:06.617Z,1.92
2023-08-14T03:16:33.321Z,2.25
2023-08-14T03:18:59.931Z,2.05
2023-08-14T03:21:26.746Z,2.10
2023-08-14T03:23:53.389Z,2.15
2023-08-14T03:26:19.891Z,2.70
2023-08-14T03:28:46.992Z,2.17
2023-08-14T03:31:14.340Z,2.40
2023-08-14T03:33:41.041Z,2.30
2023-08-14T03:36:07.665Z,2.38
2023-08-14T03:38:34.185Z,2.25
2023-08-14T03:41:00.856Z,2.20
2023-08-14T03:43:27.460Z,2.08
2023-08-14T03:45:54.001Z,1.98
2023-08-14T03:48:20.590Z,2.28
2023-08-14T03:50:50.399Z,1.95
2023-08-14T03:53:16.967Z,2.00
2023-08-14T03:55:45.716Z,2.08
2023-08-14T03:58:12.350Z,2.35
2023-08-14T04:00:38.953Z,2.10
2023-08-14T04:03:06.033Z,2.30
2023-08-14T04:05:39.043Z,2.50
2023-08-14T04:08:06.075Z,2.42
2023-08-14T04:10:33.166Z,2.30
2023-08-14T04:13:00.624Z,1.95
2023-08-14T04:15:27.576Z,2.20
2023-08-14T04:17:54.211Z,2.58
2023-08-14T04:20:21.128Z,2.50
2023-08-14T04:22:47.895Z,2.30
2023-08-14T04:25:14.733Z,2.05
2023-08-14T04:27:41.689Z,2.15
2023-08-14T04:30:09.416Z,2.15
2023-08-14T04:32:36.486Z,2.30
2023-08-14T04:35:04.201Z,2.30
2023-08-14T04:37:30.966Z,2.30
2023-08-14T04:39:58.757Z,2.10
2023-08-14T04:42:25.738Z,2.30
2023-08-14T04:44:52.507Z,2.53
2023-08-14T04:47:19.272Z,2.20
2023-08-14T04:49:46.107Z,2.38
2023-08-14T04:52:12.835Z,2.33
2023-08-14T04:54:39.675Z,2.40
2023-08-14T04:57:06.888Z,2.42
2023-08-14T04:59:33.748Z,2.40
2023-08-14T05:02:00.613Z,2.10
2023-08-14T05:04:27.432Z,2.63
2023-08-14T05:06:54.383Z,1.90
2023-08-14T05:09:27.161Z,2.38
2023-08-14T05:11:55.150Z,2.22
2023-08-14T05:14:22.174Z,2.08
2023-08-14T05:16:49.068Z,2.40
2023-08-14T05:19:16.314Z,2.22
2023-08-14T05:21:43.221Z,2.40
2023-08-14T05:24:10.475Z,2.78
2023-08-14T05:26:37.311Z,2.35
2023-08-14T05:29:04.410Z,2.47
2023-08-14T05:31:31.287Z,2.33
2023-08-14T05:33:58.076Z,2.38
2023-08-14T05:36:24.811Z,2.40
2023-08-14T05:38:51.555Z,2.70
2023-08-14T05:41:20.063Z,2.30
2023-08-14T05:43:47.060Z,2.25
2023-08-14T05:46:13.858Z,2.75
2023-08-14T05:48:40.659Z,2.83
2023-08-14T05:51:07.423Z,2.47
2023-08-14T05:53:34.148Z,2.35
2023-08-14T05:56:01.514Z,2.47
2023-08-14T05:58:28.763Z,3.00
2023-08-14T06:00:55.568Z,2.92
2023-08-14T06:03:33.037Z,2.38
2023-08-14T06:06:05.820Z,2.60
2023-08-14T06:08:32.950Z,2.50
2023-08-14T06:10:59.932Z,2.53
2023-08-14T06:13:26.791Z,2.47
2023-08-14T06:15:54.446Z,2.33
2023-08-14T06:18:22.500Z,2.75
2023-08-14T06:20:51.956Z,2.42
2023-08-14T06:23:20.225Z,2.40
2023-08-14T06:25:47.491Z,2.78
2023-08-14T06:28:14.462Z,2.80
2023-08-14T06:30:41.568Z,2.92
2023-08-14T06:33:08.553Z,2.90
2023-08-14T06:35:35.726Z,3.08
2023-08-14T06:38:02.937Z,2.80
2023-08-14T06:40:29.682Z,2.83
2023-08-14T06:42:56.758Z,3.10
2023-08-14T06:45:23.566Z,3.08
2023-08-14T06:47:50.527Z,2.42
2023-08-14T06:50:17.550Z,2.95
2023-08-14T06:52:44.346Z,3.13
2023-08-14T06:55:11.178Z,2.72
2023-08-14T06:57:38.010Z,2.92
2023-08-14T07:00:13.626Z,3.38
2023-08-14T07:02:41.684Z,2.60
2023-08-14T07:05:11.342Z,3.38
2023-08-14T07:07:38.993Z,3.20
2023-08-14T07:10:06.466Z,3.28
2023-08-14T07:12:33.939Z,3.25
2023-08-14T07:15:05.990Z,2.90
2023-08-14T07:17:33.467Z,3.03
2023-08-14T07:20:00.710Z,3.50
2023-08-14T07:22:27.625Z,2.88
2023-08-14T07:24:54.927Z,3.20
2023-08-14T07:27:24.465Z,3.55
2023-08-14T07:29:51.335Z,2.85
2023-08-14T07:32:18.393Z,3.00
2023-08-14T07:34:45.509Z,3.72
2023-08-14T07:37:13.976Z,3.40
2023-08-14T07:39:40.818Z,3.15
2023-08-14T07:42:07.634Z,2.78
2023-08-14T07:44:34.394Z,3.70
2023-08-14T07:47:01.146Z,2.80
2023-08-14T07:49:27.948Z,2.75
2023-08-14T07:51:54.727Z,3.35
2023-08-14T07:54:21.481Z,3.30
2023-08-14T07:56:50.319Z,2.90
2023-08-14T07:59:18.152Z,2.83
2023-08-14T08:01:44.962Z,2.60
2023-08-14T08:04:26.473Z,2.65
2023-08-14T08:06:53.551Z,3.00
2023-08-14T08:09:20.125Z,3.38
2023-08-14T08:11:46.805Z,3.17
2023-08-14T08:14:13.350Z,3.20
2023-08-14T08:16:39.952Z,3.42
2023-08-14T08:19:07.267Z,2.78
2023-08-14T08:21:34.452Z,2.70
2023-08-14T08:24:01.199Z,2.60
2023-08-14T08:26:28.034Z,3.08
2023-08-14T08:28:54.641Z,2.63
2023-08-14T08:31:21.305Z,2.70
2023-08-14T08:33:47.934Z,2.75
2023-08-14T08:36:19.169Z,3.47
2023-08-14T08:38:47.023Z,2.58
2023-08-14T08:41:18.096Z,2.88
2023-08-14T08:43:44.908Z,3.22
2023-08-14T08:46:13.914Z,2.60
2023-08-14T08:48:46.321Z,3.17
2023-08-14T08:51:13.605Z,3.00
2023-08-14T08:53:40.820Z,3.00
2023-08-14T08:56:07.990Z,3.38
2023-08-14T08:58:37.472Z,3.00
2023-08-14T09:01:06.101Z,3.30
2023-08-14T09:03:33.003Z,3.75
2023-08-14T09:06:00.253Z,3.05
2023-08-14T09:08:26.981Z,2.90
2023-08-14T09:10:53.701Z,2.72
2023-08-14T09:13:24.805Z,3.00
2023-08-14T09:16:00.647Z,3.15
2023-08-14T09:18:27.402Z,2.90
2023-08-14T09:20:54.929Z,2.95
2023-08-14T09:23:21.530Z,3.28
2023-08-14T09:25:48.528Z,3.15
2023-08-14T09:28:18.217Z,2.92
2023-08-14T09:30:45.027Z,3.00
2023-08-14T09:33:13.040Z,2.67
2023-08-14T09:35:40.460Z,2.70
2023-08-14T09:38:07.089Z,2.97
2023-08-14T09:40:34.052Z,3.03
2023-08-14T09:43:01.551Z,3.05
2023-08-14T09:45:29.701Z,2.75
2023-08-14T09:48:05.127Z,2.40
2023-08-14T09:50:32.449Z,2.63
2023-08-14T09:53:00.640Z,2.65
2023-08-14T09:55:28.648Z,2.78
2023-08-14T09:57:56.889Z,3.15
2023-08-14T10:00:29.209Z,2.50
2023-08-14T10:02:56.820Z,2.50
2023-08-14T10:05:25.742Z,3.05
2023-08-14T10:07:55.500Z,2.45
2023-08-14T10:10:23.941Z,2.70
2023-08-14T10:12:58.809Z,2.45
2023-08-14T10:15:33.039Z,2.60
2023-08-14T10:18:04.963Z,2.65
2023-08-14T10:20:34.771Z,2.20
2023-08-14T10:23:03.094Z,2.63
2023-08-14T10:25:30.083Z,3.00
2023-08-14T10:27:57.443Z,2.70
2023-08-14T10:30:25.252Z,2.70
2023-08-14T10:32:53.490Z,2.70
2023-08-14T10:35:24.928Z,2.95
2023-08-14T10:38:08.314Z,3.25
2023-08-14T10:40:37.390Z,2.60
2023-08-14T10:43:06.647Z,2.67
2023-08-14T10:45:34.226Z,2.80
2023-08-14T10:48:08.377Z,2.97
2023-08-14T10:50:35.232Z,2.80
2023-08-14T10:53:05.438Z,2.90
2023-08-14T10:55:40.365Z,2.72
2023-08-14T10:58:36.555Z,3.00
2023-08-14T11:01:11.468Z,2.70
2023-08-14T11:03:59.383Z,2.88
2023-08-14T11:06:27.738Z,2.83
2023-08-14T11:08:59.871Z,3.10
2023-08-14T11:11:27.539Z,3.13
2023-08-14T11:13:54.598Z,2.80
2023-08-14T11:16:22.084Z,3.03
2023-08-14T11:18:48.774Z,2.78
2023-08-14T11:21:29.042Z,2.80
2023-08-14T11:23:57.846Z,2.80
2023-08-14T11:26:29.402Z,2.53
2023-08-14T11:28:55.986Z,3.10
2023-08-14T11:31:30.877Z,2.83
2023-08-14T11:34:01.782Z,2.55
2023-08-14T11:36:34.587Z,2.88
2023-08-14T11:39:01.609Z,3.00
2023-08-14T11:43:57.723Z,2.53
2023-08-14T11:46:24.690Z,2.67
2023-08-14T11:48:51.279Z,2.50
2023-08-14T11:51:17.873Z,3.00
2023-08-14T11:53:45.365Z,3.10
2023-08-14T11:56:11.938Z,3.00
2023-08-14T11:58:39.199Z,2.70
2023-08-14T12:01:05.931Z,2.78
2023-08-14T12:03:32.766Z,2.80
2023-08-14T12:06:06.666Z,2.80
2023-08-14T12:08:33.212Z,2.70
2023-08-14T12:10:59.834Z,2.90
2023-08-14T12:13:26.649Z,2.75
2023-08-14T12:15:53.767Z,2.90
2023-08-14T12:18:23.025Z,2.70
2023-08-14T12:20:55.695Z,2.90
2023-08-14T12:23:24.652Z,2.90
2023-08-14T12:25:53.105Z,3.00
2023-08-14T12:28:20.953Z,3.08
2023-08-14T12:30:49.423Z,2.78
2023-08-14T12:33:17.048Z,2.83
2023-08-14T12:35:43.683Z,2.95
2023-08-14T12:38:10.809Z,2.80
2023-08-14T12:40:37.486Z,2.88
2023-08-14T12:43:04.541Z,2.83
2023-08-14T12:45:31.163Z,2.70
2023-08-14T12:47:57.686Z,2.78
2023-08-14T12:50:24.708Z,2.88
2023-08-14T12:52:51.259Z,2.80
2023-08-14T12:55:19.519Z,2.60
2023-08-14T12:57:48.541Z,2.80
2023-08-14T13:00:15.962Z,2.40
2023-08-14T13:02:42.737Z,2.90
2023-08-14T13:05:09.717Z,2.50
2023-08-14T13:07:36.984Z,2.75
2023-08-14T13:10:04.157Z,2.80
2023-08-14T13:12:30.885Z,2.92
2023-08-14T13:14:57.512Z,2.40
2023-08-14T13:17:24.224Z,2.83
2023-08-14T13:19:52.210Z,2.50
2023-08-14T13:22:19.485Z,2.97
2023-08-14T13:24:46.183Z,2.22
2023-08-14T13:27:12.919Z,2.58
2023-08-14T13:29:39.516Z,2.67
2023-08-14T13:32:06.300Z,2.75
2023-08-14T13:34:33.136Z,2.45
2023-08-14T13:36:59.647Z,2.35
2023-08-14T13:39:26.165Z,2.58
2023-08-14T13:41:53.968Z,2.33
2023-08-14T13:44:20.518Z,2.47
2023-08-14T13:46:47.060Z,2.67
2023-08-14T13:49:13.754Z,2.22
2023-08-14T13:51:40.488Z,2.47
2023-08-14T13:54:07.172Z,2.50
2023-08-14T13:56:33.736Z,2.75
2023-08-14T13:59:00.563Z,2.63
2023-08-14T14:01:27.747Z,2.33
2023-08-14T14:03:54.798Z,2.75
2023-08-14T14:06:21.546Z,2.60
2023-08-14T14:08:48.152Z,2.60
2023-08-14T14:11:14.962Z,2.33
2023-08-14T14:13:41.615Z,2.88
2023-08-14T14:16:08.578Z,2.53
2023-08-14T14:18:35.404Z,2.80
2023-08-14T14:21:02.012Z,2.33
2023-08-14T14:23:28.655Z,2.70
2023-08-14T14:25:55.391Z,2.42
2023-08-14T14:28:22.149Z,2.63
2023-08-14T14:30:48.980Z,2.60
2023-08-14T14:33:15.571Z,2.75
2023-08-14T14:35:42.140Z,2.30
2023-08-14T14:38:09.698Z,2.53
2023-08-14T14:40:36.249Z,2.83
2023-08-14T14:43:02.920Z,2.45
2023-08-14T14:47:59.042Z,2.20
2023-08-14T14:50:29.672Z,2.47
2023-08-14T14:52:57.509Z,2.63
2023-08-14T14:55:26.368Z,2.70
2023-08-14T14:57:52.897Z,2.92
2023-08-14T15:00:19.599Z,2.55
2023-08-14T15:02:46.226Z,2.42
2023-08-14T15:05:26.011Z,2.60
2023-08-14T15:07:55.104Z,2.60
2023-08-14T15:10:21.741Z,2.45
2023-08-14T15:12:48.355Z,2.67
2023-08-14T15:15:14.944Z,2.78
2023-08-14T15:17:44.409Z,2.70
2023-08-14T15:20:13.439Z,2.50
2023-08-14T15:22:40.606Z,2.70
2023-08-14T15:25:08.944Z,2.63
2023-08-14T15:27:35.944Z,2.85
2023-08-14T15:30:03.134Z,2.45
2023-08-14T15:32:30.150Z,2.50
2023-08-14T15:34:56.997Z,2.40
2023-08-14T15:37:23.632Z,2.85
2023-08-14T15:39:51.876Z,2.60
2023-08-14T15:42:18.480Z,2.80
2023-08-14T15:44:45.127Z,2.50
2023-08-14T15:47:11.702Z,2.75
2023-08-14T15:49:38.312Z,2.40
2023-08-14T15:52:05.057Z,2.90
2023-08-14T15:54:43.172Z,2.47
2023-08-14T15:57:18.329Z,2.60
2023-08-14T15:59:45.354Z,2.85
2023-08-14T16:02:11.934Z,2.70
2023-08-14T16:04:38.548Z,2.40
2023-08-14T16:07:05.182Z,3.22
2023-08-14T16:09:31.816Z,2.88
2023-08-14T16:11:58.557Z,2.55
2023-08-14T16:14:25.817Z,2.45
2023-08-14T16:16:52.614Z,2.60
2023-08-14T16:19:20.137Z,2.42
2023-08-14T16:21:47.013Z,2.70
2023-08-14T16:24:13.620Z,2.33
2023-08-14T16:26:40.304Z,2.45
2023-08-14T16:29:06.889Z,2.97
2023-08-14T16:31:34.350Z,2.95
2023-08-14T16:34:01.226Z,2.20
2023-08-14T16:36:27.828Z,2.35
2023-08-14T16:38:54.433Z,2.47
2023-08-14T16:41:21.053Z,2.58
2023-08-14T16:43:47.686Z,2.60
2023-08-14T16:46:14.349Z,2.55
2023-08-14T16:48:40.954Z,2.97
2023-08-14T16:51:08.057Z,2.20
2023-08-14T16:53:34.676Z,2.70
2023-08-14T16:56:01.304Z,2.45
2023-08-14T16:58:27.943Z,2.20
2023-08-14T17:00:54.620Z,2.75
2023-08-14T17:03:21.524Z,2.25
2023-08-14T17:05:48.156Z,2.47
2023-08-14T17:08:14.755Z,2.10
2023-08-14T17:10:45.258Z,2.88
2023-08-14T17:13:12.064Z,2.47
2023-08-14T17:15:40.795Z,2.45
2023-08-14T17:18:07.471Z,2.35
2023-08-14T17:20:34.588Z,2.45
2023-08-14T17:23:01.300Z,2.60
2023-08-14T17:25:27.907Z,2.40
2023-08-14T17:27:54.481Z,2.47
2023-08-14T17:30:21.177Z,2.40
2023-08-14T17:32:55.859Z,2.53
2023-08-14T17:35:22.913Z,2.97
2023-08-14T17:37:49.507Z,2.80
2023-08-14T17:40:16.525Z,2.85
2023-08-14T17:42:43.522Z,2.20
2023-08-14T17:45:10.401Z,2.70
2023-08-14T17:47:37.031Z,2.65
2023-08-14T17:50:04.376Z,3.00
2023-08-14T17:52:31.360Z,2.65
2023-08-14T17:54:57.944Z,2.53
2023-08-14T17:57:24.849Z,2.42
2023-08-14T17:59:51.441Z,2.60
2023-08-14T18:02:18.405Z,2.75
2023-08-14T18:04:44.967Z,2.35
2023-08-14T18:07:11.583Z,2.67
2023-08-14T18:09:38.254Z,2.50
2023-08-14T18:12:05.143Z,2.40
2023-08-14T18:14:31.740Z,2.70
2023-08-14T18:16:58.325Z,2.75
2023-08-14T18:19:29.644Z,2.70
2023-08-14T18:21:57.509Z,2.65
2023-08-14T18:24:24.121Z,2.88
2023-08-14T18:26:50.748Z,2.70
2023-08-14T18:29:17.894Z,2.35
2023-08-14T18:31:44.584Z,2.78
2023-08-14T18:34:11.508Z,2.40
2023-08-14T18:36:38.306Z,2.53
2023-08-14T18:39:05.185Z,2.58
2023-08-14T18:41:32.192Z,2.88
2023-08-14T18:43:59.150Z,2.80
2023-08-14T18:46:27.272Z,2.60
2023-08-14T18:48:54.304Z,2.78
2023-08-14T18:51:21.802Z,3.13
2023-08-14T18:53:50.674Z,3.03
2023-08-14T18:56:17.260Z,3.35
2023-08-14T18:58:47.303Z,3.30
2023-08-14T19:01:13.860Z,3.55
2023-08-14T19:03:40.757Z,3.42
2023-08-14T19:06:08.153Z,2.90
2023-08-14T19:08:34.764Z,2.90
2023-08-14T19:11:01.309Z,2.75
2023-08-14T19:13:28.092Z,2.67
2023-08-14T19:15:54.667Z,2.55
2023-08-14T19:18:22.010Z,3.10
2023-08-14T19:20:49.623Z,3.17
2023-08-14T19:23:16.561Z,2.63
2023-08-14T19:25:43.113Z,3.20
2023-08-14T19:28:20.956Z,2.63
2023-08-14T19:30:48.689Z,2.80
2023-08-14T19:33:15.430Z,3.25
2023-08-14T19:35:42.019Z,2.90
2023-08-14T19:38:08.749Z,2.80
2023-08-14T19:40:36.649Z,2.80
2023-08-14T19:43:03.239Z,2.38
2023-08-14T19:45:29.896Z,2.95
2023-08-14T19:47:56.594Z,3.50
2023-08-14T19:50:23.222Z,3.20
2023-08-14T19:52:50.007Z,3.20
2023-08-14T19:55:16.638Z,2.40
2023-08-14T19:57:43.253Z,3.15
2023-08-14T20:00:10.925Z,2.90
2023-08-14T20:02:37.811Z,3.25
2023-08-14T20:05:06.127Z,3.10
2023-08-14T20:07:32.779Z,2.97
2023-08-14T20:10:01.358Z,3.00
2023-08-14T20:12:28.059Z,3.28
2023-08-14T20:14:54.683Z,3.38
2023-08-14T20:17:21.384Z,2.80
2023-08-14T20:19:48.924Z,3.17
2023-08-14T20:22:15.745Z,2.55
2023-08-14T20:24:42.297Z,2.67
2023-08-14T20:27:09.213Z,3.17
2023-08-14T20:29:35.793Z,3.10
2023-08-14T20:32:02.998Z,3.00
2023-08-14T20:34:29.610Z,3.47
2023-08-14T20:36:56.208Z,2.90
2023-08-14T20:39:23.449Z,2.92
2023-08-14T20:41:50.117Z,2.95
2023-08-14T20:44:16.766Z,3.17
2023-08-14T20:46:44.501Z,3.38
2023-08-14T20:49:11.202Z,3.15
2023-08-14T20:51:37.877Z,3.00
2023-08-14T20:54:05.696Z,2.97
2023-08-14T20:56:32.792Z,3.25
2023-08-14T20:58:59.643Z,2.88
2023-08-14T21:01:26.488Z,3.00
2023-08-14T21:03:53.348Z,2.58
2023-08-14T21:06:20.313Z,2.97
2023-08-14T21:08:47.209Z,2.83
2023-08-14T21:11:16.088Z,2.85
2023-08-14T21:13:43.889Z,3.20
2023-08-14T21:16:10.471Z,3.67
2023-08-14T21:18:37.010Z,2.80
2023-08-14T21:21:03.757Z,3.10
2023-08-14T21:23:30.366Z,2.90
2023-08-14T21:25:56.895Z,3.40
2023-08-14T21:28:23.497Z,3.40
2023-08-14T21:30:58.600Z,3.47
2023-08-14T21:33:25.691Z,3.25
2023-08-14T21:35:52.384Z,3.60
2023-08-14T21:38:18.983Z,3.97
2023-08-14T21:40:45.864Z,4.00
2023-08-14T21:43:12.484Z,3.47
2023-08-14T21:45:41.280Z,3.40
2023-08-14T21:48:08.205Z,3.20
2023-08-14T21:50:37.299Z,3.13
2023-08-14T21:53:04.950Z,3.55
2023-08-14T21:55:31.826Z,3.50
2023-08-14T21:57:58.467Z,3.28
2023-08-14T22:00:25.281Z,2.88
2023-08-14T22:02:52.319Z,3.40
2023-08-14T22:05:19.014Z,3.40
2023-08-14T22:07:45.656Z,3.50
2023-08-14T22:10:12.933Z,2.80
2023-08-14T22:12:42.302Z,3.28
2023-08-14T22:15:09.296Z,3.45
2023-08-14T22:17:36.187Z,3.20
2023-08-14T22:20:05.420Z,2.95
2023-08-14T22:22:32.117Z,2.72
2023-08-14T22:24:58.863Z,3.20
2023-08-14T22:27:25.365Z,3.38
2023-08-14T22:29:51.969Z,3.30
2023-08-14T22:32:18.602Z,4.03
2023-08-14T22:34:45.102Z,3.22
2023-08-14T22:37:11.792Z,2.90
2023-08-14T22:39:38.358Z,3.28
2023-08-14T22:42:05.222Z,2.80
2023-08-14T22:44:31.796Z,3.58
2023-08-14T22:46:58.315Z,3.45
2023-08-14T22:49:24.824Z,3.50
2023-08-14T22:51:51.466Z,3.33
2023-08-14T22:54:18.033Z,3.33
2023-08-14T22:56:44.528Z,3.20
2023-08-14T22:59:11.056Z,3.22
2023-08-14T23:01:37.624Z,3.03
2023-08-14T23:04:04.645Z,2.90
2023-08-14T23:06:31.228Z,3.25
2023-08-14T23:08:57.993Z,3.40
2023-08-14T23:11:24.980Z,3.30
2023-08-14T23:13:51.744Z,3.40
2023-08-14T23:16:18.442Z,3.10
2023-08-14T23:18:45.279Z,3.20
2023-08-14T23:21:11.871Z,3.03
2023-08-14T23:23:38.435Z,3.47
2023-08-14T23:26:08.286Z,3.30
2023-08-14T23:28:35.000Z,3.25
2023-08-14T23:31:03.461Z,2.92
2023-08-14T23:33:30.291Z,3.58
2023-08-14T23:35:57.015Z,3.20
2023-08-14T23:38:24.802Z,4.28
2023-08-14T23:40:51.362Z,3.10
2023-08-14T23:43:17.911Z,3.20
2023-08-14T23:45:44.777Z,3.70
2023-08-14T23:48:11.651Z,4.18
2023-08-14T23:50:38.449Z,3.00
2023-08-14T23:53:04.990Z,3.15
2023-08-14T23:55:31.611Z,3.17
2023-08-14T23:57:58.198Z,3.00
